Terminal Aerodrome Forecast
Issued by NWS

Home | Current Version | Previous Version | Text Only | Print | Product List | Glossary Off
Versions: 1 2 3 4 5 6 7 8 9 10 11 12 13 14 15 16 17 18 19 20 21 22 23 24 25

000
FTUS43 KBIS 240534
TAFJMS
TAF
KJMS 240534Z 2406/2506 13012G19KT 5SM BR OVC005
     FM240900 13015G21KT 5SM BR BKN008
     FM241200 14014G20KT 5SM BR BKN015
     FM241800 15015G21KT P6SM -SHRA OVC025
     FM242100 16016G22KT P6SM BKN040
     FM250300 17008KT P6SM FEW250=

USA.gov is the U.S. government's official web portal to all federal, state and local government web resources and services.